createdAt,value
2022-11-19T00:00:25.010Z,201.76
2022-11-19T00:05:24.934Z,202.26
2022-11-19T00:10:24.866Z,201.89
2022-11-19T00:15:24.816Z,202.01
2022-11-19T00:20:24.755Z,201.89
2022-11-19T00:25:24.661Z,201.76
2022-11-19T00:30:46.950Z,201.76
2022-11-19T00:35:25.544Z,202.01
2022-11-19T00:40:24.464Z,202.13
2022-11-19T00:45:24.407Z,202.01
2022-11-19T00:50:24.359Z,201.89
2022-11-19T00:55:24.239Z,201.89
2022-11-19T01:00:24.212Z,201.64
2022-11-19T01:05:44.380Z,201.15
2022-11-19T01:10:36.631Z,201.89
2022-11-19T01:15:36.611Z,201.76
2022-11-19T01:20:36.568Z,202.13
2022-11-19T01:25:36.472Z,202.13
2022-11-19T01:30:36.372Z,202.13
2022-11-19T01:35:36.328Z,201.64
2022-11-19T01:40:36.277Z,202.26
2022-11-19T01:45:36.223Z,202.01
2022-11-19T01:50:36.119Z,201.89
2022-11-19T01:55:36.063Z,203.12
2022-11-19T02:00:36.021Z,203.12
2022-11-19T02:05:36.058Z,203.62
2022-11-19T02:10:35.852Z,204.50
2022-11-19T02:15:35.855Z,202.75
2022-11-19T02:20:35.732Z,203.00
2022-11-19T02:25:35.663Z,204.88
2022-11-19T02:30:35.591Z,205.90
2022-11-19T02:35:35.554Z,208.09
2022-11-19T02:40:35.436Z,209.27
2022-11-19T02:45:35.417Z,210.20
2022-11-19T02:50:35.323Z,211.14
2022-11-19T02:55:35.265Z,212.90
2022-11-19T03:00:35.196Z,216.09
2022-11-19T03:05:35.143Z,217.65
2022-11-19T03:10:35.043Z,218.22
2022-11-19T03:15:35.015Z,218.36
2022-11-19T03:20:34.939Z,220.39
2022-11-19T03:25:34.847Z,222.16
2022-11-19T03:30:34.814Z,223.36
2022-11-19T03:35:34.744Z,225.95
2022-11-19T03:40:34.668Z,227.96
2022-11-19T03:45:34.604Z,229.38
2022-11-19T03:50:34.553Z,231.95
2022-11-19T03:55:34.470Z,232.93
2022-11-19T04:00:34.416Z,234.57
2022-11-19T04:05:34.353Z,235.57
2022-11-19T04:10:34.268Z,237.60
2022-11-19T04:15:34.209Z,239.31
2022-11-19T04:20:34.167Z,238.96
2022-11-19T04:25:34.050Z,240.52
2022-11-19T04:30:34.041Z,240.00
2022-11-19T04:35:33.945Z,241.75
2022-11-19T04:40:33.870Z,243.70
2022-11-19T04:45:33.820Z,245.32
2022-11-19T04:50:33.769Z,247.15
2022-11-19T04:55:33.652Z,249.38
2022-11-19T05:00:33.650Z,250.13
2022-11-19T05:05:33.583Z,254.35
2022-11-19T05:10:33.491Z,255.92
2022-11-19T05:15:47.922Z,256.12
2022-11-19T05:20:40.310Z,253.38
2022-11-19T05:25:40.277Z,257.11
2022-11-19T05:30:40.234Z,257.51
2022-11-19T05:35:40.161Z,254.16
2022-11-19T05:40:40.088Z,258.11
2022-11-19T05:45:40.020Z,253.19
2022-11-19T05:50:39.949Z,257.11
2022-11-19T05:55:39.888Z,259.52
2022-11-19T06:00:39.809Z,263.23
2022-11-19T06:05:40.689Z,261.78
2022-11-19T06:10:39.691Z,261.98
2022-11-19T06:15:39.652Z,261.57
2022-11-19T06:20:39.560Z,262.61
2022-11-19T06:25:39.491Z,263.44
2022-11-19T06:30:39.431Z,264.28
2022-11-19T06:35:39.372Z,265.33
2022-11-19T06:40:39.293Z,264.07
2022-11-19T06:45:39.246Z,263.86
2022-11-19T06:50:39.161Z,262.61
2022-11-19T06:55:39.111Z,262.61
2022-11-19T07:00:39.036Z,264.49
2022-11-19T07:05:39.003Z,265.76
2022-11-19T07:10:38.900Z,264.28
2022-11-19T07:15:38.863Z,260.14
2022-11-19T07:20:38.770Z,265.55
2022-11-19T07:25:38.741Z,265.33
2022-11-19T07:30:38.648Z,264.28
2022-11-19T07:35:38.603Z,266.61
2022-11-19T07:40:38.523Z,265.76
2022-11-19T07:45:38.514Z,264.91
2022-11-19T07:50:39.424Z,268.99
2022-11-19T07:55:38.454Z,267.91
2022-11-19T08:00:38.254Z,267.26
2022-11-19T08:05:38.229Z,264.28
2022-11-19T08:10:38.140Z,272.08
2022-11-19T08:15:38.093Z,269.43
2022-11-19T08:20:37.994Z,267.91
2022-11-19T08:25:37.959Z,274.33
2022-11-19T08:30:37.887Z,269.43
2022-11-19T08:35:37.834Z,270.75
2022-11-19T08:40:37.769Z,270.53
2022-11-19T08:45:37.699Z,270.97
2022-11-19T08:50:37.626Z,270.97
2022-11-19T08:55:37.659Z,272.08
2022-11-19T09:00:37.656Z,275.47
2022-11-19T09:05:37.434Z,273.65
2022-11-19T09:10:37.357Z,272.53
2022-11-19T09:15:37.315Z,272.53
2022-11-19T09:20:37.269Z,270.31
2022-11-19T09:25:37.882Z,274.33
2022-11-19T09:30:37.105Z,273.88
2022-11-19T09:35:37.081Z,272.75
2022-11-19T09:40:38.216Z,270.97
2022-11-19T09:45:36.958Z,271.19
2022-11-19T09:50:36.861Z,274.56
2022-11-19T09:55:36.808Z,271.64
2022-11-19T10:00:36.724Z,272.08
2022-11-19T10:05:36.680Z,275.47
2022-11-19T10:10:36.597Z,276.85
2022-11-19T10:15:38.046Z,274.56
2022-11-19T10:20:36.484Z,273.88
2022-11-19T10:25:36.402Z,273.20
2022-11-19T10:30:36.337Z,271.19
2022-11-19T10:35:36.293Z,273.42
2022-11-19T10:40:36.302Z,273.88
2022-11-19T10:45:36.167Z,273.20
2022-11-19T10:50:36.096Z,274.56
2022-11-19T10:55:36.041Z,276.85
2022-11-19T11:00:36.010Z,272.53
2022-11-19T11:05:35.910Z,274.33
2022-11-19T11:10:35.839Z,275.93
2022-11-19T11:15:35.782Z,271.86
2022-11-19T11:20:35.713Z,271.64
2022-11-19T11:25:35.666Z,271.86
2022-11-19T11:33:28.756Z,321.05
2022-11-19T11:38:28.527Z,306.51
2022-11-19T11:43:28.487Z,300.14
2022-11-19T11:48:28.395Z,295.33
2022-11-19T11:53:28.407Z,289.91
2022-11-19T11:58:28.247Z,286.90
2022-11-19T12:03:28.223Z,282.99
2022-11-19T12:08:28.143Z,282.99
2022-11-19T12:13:28.067Z,278.94
2022-11-19T12:18:28.020Z,280.36
2022-11-19T12:23:27.986Z,281.31
2022-11-19T12:28:27.882Z,282.02
2022-11-19T12:33:27.881Z,281.31
2022-11-19T12:38:27.776Z,283.47
2022-11-19T12:43:27.731Z,281.79
2022-11-19T12:48:27.635Z,282.75
2022-11-19T12:53:27.590Z,284.44
2022-11-19T12:58:27.495Z,282.99
2022-11-19T13:03:27.457Z,284.69
2022-11-19T13:08:27.371Z,282.51
2022-11-19T13:13:27.304Z,280.12
2022-11-19T13:18:27.260Z,280.36
2022-11-19T13:23:27.204Z,278.94
2022-11-19T13:28:27.113Z,278.01
2022-11-19T13:33:27.060Z,277.08
2022-11-19T13:38:27.009Z,277.31
2022-11-19T13:43:34.153Z,276.16
2022-11-19T13:48:27.868Z,276.62
2022-11-19T13:53:26.799Z,275.24
2022-11-19T13:58:26.730Z,275.01
2022-11-19T14:03:26.704Z,278.47
2022-11-19T14:08:26.609Z,276.62
2022-11-19T14:13:26.568Z,278.24
2022-11-19T14:18:26.499Z,277.08
2022-11-19T14:23:26.428Z,277.54
2022-11-19T14:28:26.346Z,276.16
2022-11-19T14:33:26.299Z,282.75
2022-11-19T14:38:26.212Z,281.79
2022-11-19T14:43:26.163Z,281.07
2022-11-19T14:48:26.085Z,282.26
2022-11-19T14:53:26.048Z,278.01
2022-11-19T14:58:25.955Z,278.01
2022-11-19T15:03:25.937Z,278.94
2022-11-19T15:08:25.821Z,280.36
2022-11-19T15:13:25.788Z,277.54
2022-11-19T15:18:25.684Z,281.31
2022-11-19T15:23:25.645Z,278.24
2022-11-19T15:28:25.564Z,277.54
2022-11-19T15:33:25.499Z,275.93
2022-11-19T15:38:25.441Z,279.18
2022-11-19T15:43:25.447Z,278.47
2022-11-19T15:48:25.321Z,278.24
2022-11-19T15:53:25.260Z,276.85
2022-11-19T15:58:25.189Z,278.47
2022-11-19T16:03:25.144Z,278.71
2022-11-19T16:08:25.041Z,278.24
2022-11-19T16:13:25.025Z,279.88
2022-11-19T16:18:25.003Z,283.71
2022-11-19T16:23:24.859Z,284.69
2022-11-19T16:28:24.804Z,283.71
2022-11-19T16:33:24.766Z,284.93
2022-11-19T16:38:24.672Z,286.65
2022-11-19T16:43:24.613Z,283.95
2022-11-19T16:48:24.590Z,285.42
2022-11-19T16:53:24.489Z,286.41
2022-11-19T16:58:24.430Z,286.16
2022-11-19T17:03:24.375Z,287.40
2022-11-19T17:08:24.277Z,284.93
2022-11-19T17:13:24.244Z,282.99
2022-11-19T17:18:24.156Z,281.55
2022-11-19T17:23:24.085Z,280.36
2022-11-19T17:28:24.040Z,278.94
2022-11-19T17:33:23.980Z,278.47
2022-11-19T17:38:23.902Z,277.54
2022-11-19T17:43:23.865Z,277.54
2022-11-19T17:48:23.784Z,278.01
2022-11-19T17:53:25.108Z,278.71
2022-11-19T17:58:23.664Z,278.47
2022-11-19T18:03:23.596Z,278.01
2022-11-19T18:08:23.492Z,280.83
2022-11-19T18:13:23.463Z,282.26
2022-11-19T18:18:23.382Z,283.71
2022-11-19T18:23:23.316Z,282.99
2022-11-19T18:28:23.284Z,282.75
2022-11-19T18:33:23.219Z,282.99
2022-11-19T18:38:23.141Z,283.95
2022-11-19T18:43:23.109Z,282.51
2022-11-19T18:48:23.170Z,282.75
2022-11-19T18:53:23.178Z,282.75
2022-11-19T18:58:22.894Z,281.79
2022-11-19T19:03:22.818Z,283.95
2022-11-19T19:08:22.783Z,286.16
2022-11-19T19:13:22.701Z,284.44
2022-11-19T19:18:22.691Z,284.20
2022-11-19T19:23:22.621Z,284.69
2022-11-19T19:28:22.474Z,284.20
2022-11-19T19:33:22.468Z,283.95
2022-11-19T19:38:22.378Z,286.41
2022-11-19T19:43:22.333Z,287.15
2022-11-19T19:48:22.306Z,287.65
2022-11-19T19:53:22.178Z,289.91
2022-11-19T19:58:28.012Z,289.66
2022-11-19T20:03:23.088Z,289.66
2022-11-19T20:08:21.966Z,290.93
2022-11-19T20:13:21.925Z,289.66
2022-11-19T20:18:21.846Z,291.18
2022-11-19T20:23:21.801Z,289.15
2022-11-19T20:28:21.712Z,288.15
2022-11-19T20:33:21.689Z,287.90
2022-11-19T20:38:21.600Z,288.40
2022-11-19T20:43:21.592Z,288.15
2022-11-19T20:48:21.469Z,286.90
2022-11-19T20:53:21.457Z,288.40
2022-11-19T20:58:21.348Z,287.65
2022-11-19T21:03:21.265Z,290.16
2022-11-19T21:08:21.188Z,287.65
2022-11-19T21:13:21.175Z,287.40
2022-11-19T21:18:24.068Z,291.18
2022-11-19T21:23:21.074Z,289.66
2022-11-19T21:28:21.271Z,290.42
2022-11-19T21:33:20.878Z,290.67
2022-11-19T21:38:20.809Z,288.90
2022-11-19T21:43:20.818Z,287.65
2022-11-19T21:48:20.670Z,288.65
2022-11-19T21:53:20.695Z,287.65
2022-11-19T21:58:20.567Z,290.16
2022-11-19T22:03:20.512Z,291.44
2022-11-19T22:08:20.417Z,291.95
2022-11-19T22:13:20.344Z,292.98
2022-11-19T22:18:20.285Z,292.21
2022-11-19T22:23:24.283Z,292.72
2022-11-19T22:28:20.158Z,290.42
2022-11-19T22:33:20.108Z,291.69
2022-11-19T22:38:20.040Z,291.44
2022-11-19T22:43:22.777Z,292.21
2022-11-19T22:48:20.029Z,292.46
2022-11-19T22:53:19.852Z,291.18
2022-11-19T22:58:19.772Z,290.67
2022-11-19T23:03:19.711Z,292.72
2022-11-19T23:08:19.661Z,293.50
2022-11-19T23:13:19.651Z,291.95
2022-11-19T23:18:19.532Z,291.44
2022-11-19T23:23:19.442Z,289.66
2022-11-19T23:28:19.409Z,289.66
2022-11-19T23:33:19.330Z,286.90
2022-11-19T23:38:19.273Z,287.15
2022-11-19T23:43:19.193Z,286.90
2022-11-19T23:48:19.140Z,286.16
2022-11-19T23:53:19.045Z,285.91
2022-11-19T23:58:19.015Z,285.18
